Time;durP1;ratioP1;P1;durP2;ratioP2;P2;SDS_P1;SDS_P2;PMS_P1;PMS_P2;Temp;Humidity;BMP_temperature;BMP_pressure;BME280_temperature;BME280_humidity;BME280_pressure;Samples;Min_cycle;Max_cycle;Signal;HPM_P1;HPM_P2
2022/04/12 00:01:03;;;;;;;7.82;3.65;;;2.40;99.90;;;;;;4938958;29;20182;-75
2022/04/12 00:03:29;;;;;;;4.95;3.70;;;2.50;99.90;;;;;;4939215;29;20027;-76
2022/04/12 00:05:55;;;;;;;6.93;3.47;;;2.70;99.90;;;;;;4939386;29;20031;-75
2022/04/12 00:08:21;;;;;;;5.22;3.42;;;2.60;99.90;;;;;;4938857;29;20027;-76
2022/04/12 00:10:46;;;;;;;5.95;3.45;;;2.50;99.90;;;;;;4956485;29;20038;-75
2022/04/12 00:13:12;;;;;;;3.65;2.78;;;2.50;99.90;;;;;;4956438;29;20023;-76
2022/04/12 00:15:39;;;;;;;4.93;3.08;;;2.50;99.90;;;;;;4939142;29;20058;-76
2022/04/12 00:20:49;;;;;;;6.50;3.65;;;2.40;99.90;;;;;;4956779;29;20063;-75
2022/04/12 00:23:15;;;;;;;4.88;3.25;;;2.30;99.90;;;;;;4956711;29;20019;-76
2022/04/12 00:25:44;;;;;;;5.82;3.58;;;2.30;99.90;;;;;;4959420;29;20020;-77
2022/04/12 00:28:11;;;;;;;6.85;3.65;;;2.30;99.90;;;;;;4954455;29;20015;-76
2022/04/12 00:30:37;;;;;;;5.47;3.72;;;2.30;99.90;;;;;;4937113;29;20053;-76
2022/04/12 00:33:03;;;;;;;5.47;3.30;;;2.30;99.90;;;;;;4954330;29;20110;-76
2022/04/12 00:35:28;;;;;;;4.47;3.55;;;2.20;99.90;;;;;;4954213;29;20027;-76
2022/04/12 00:37:54;;;;;;;8.40;3.70;;;2.20;99.90;;;;;;4954336;29;20123;-76
2022/04/12 00:40:24;;;;;;;4.75;3.25;;;2.20;99.90;;;;;;4954118;29;20514;-76
2022/04/12 00:42:51;;;;;;;8.05;3.80;;;2.20;99.90;;;;;;4936850;29;20094;-76
2022/04/12 00:45:17;;;;;;;5.55;3.72;;;2.20;99.90;;;;;;4954226;29;20371;-76
2022/04/12 00:47:43;;;;;;;5.22;3.25;;;2.10;99.90;;;;;;4954026;29;20039;-76
2022/04/12 00:50:10;;;;;;;7.47;3.70;;;2.10;99.90;;;;;;4953952;29;20068;-76
2022/04/12 00:52:48;;;;;;;7.70;3.78;;;2.10;99.90;;;;;;4953962;29;20035;-76
2022/04/12 00:55:16;;;;;;;3.65;2.95;;;2.10;99.90;;;;;;4954634;28;20027;-76
2022/04/12 00:57:42;;;;;;;7.50;3.40;;;2.10;99.90;;;;;;4957849;29;20379;-76
2022/04/12 01:00:09;;;;;;;6.40;3.50;;;2.10;99.90;;;;;;4957799;29;20375;-76
2022/04/12 01:02:35;;;;;;;3.72;3.25;;;2.00;99.90;;;;;;4957536;29;20038;-76
2022/04/12 01:05:03;;;;;;;6.22;3.75;;;2.20;99.90;;;;;;4957545;29;20031;-76
2022/04/12 01:07:30;;;;;;;10.13;3.28;;;2.10;99.90;;;;;;4940285;29;20031;-76
2022/04/12 01:09:56;;;;;;;5.47;3.58;;;2.00;99.90;;;;;;4957424;29;20021;-76
2022/04/12 01:12:22;;;;;;;7.22;3.92;;;2.00;99.90;;;;;;4957463;29;20035;-76
2022/04/12 01:14:48;;;;;;;3.85;3.05;;;2.00;99.90;;;;;;4957757;29;20121;-76
2022/04/12 01:17:15;;;;;;;7.57;3.38;;;1.90;99.90;;;;;;4956879;29;20055;-76
2022/04/12 01:19:41;;;;;;;4.15;3.08;;;1.90;99.90;;;;;;4957674;29;20035;-78
2022/04/12 01:22:13;;;;;;;6.55;3.38;;;1.90;99.90;;;;;;4957316;29;20383;-77
2022/04/12 01:24:39;;;;;;;3.80;3.10;;;1.80;99.90;;;;;;4957459;29;20101;-76
2022/04/12 01:27:05;;;;;;;5.15;3.33;;;1.80;99.90;;;;;;4957243;29;20110;-76
2022/04/12 01:29:34;;;;;;;4.88;3.40;;;1.80;99.90;;;;;;4956926;29;20023;-77
2022/04/12 01:32:01;;;;;;;4.22;3.35;;;1.80;99.90;;;;;;4957178;29;20090;-77
2022/04/12 01:34:27;;;;;;;8.85;3.63;;;1.80;99.90;;;;;;4956869;29;20106;-76
2022/04/12 01:36:53;;;;;;;5.07;2.85;;;1.80;99.90;;;;;;4956956;29;20031;-76
2022/04/12 01:39:20;;;;;;;3.45;2.90;;;1.80;99.90;;;;;;4956894;29;20059;-76
2022/04/12 01:41:46;;;;;;;4.03;3.10;;;1.80;99.90;;;;;;4956879;29;20114;-77
2022/04/12 01:44:12;;;;;;;4.53;3.13;;;1.80;99.90;;;;;;4957069;29;20528;-75
2022/04/12 01:46:37;;;;;;;5.57;3.55;;;1.80;99.90;;;;;;4956454;29;20028;-76
2022/04/12 01:49:03;;;;;;;4.43;3.25;;;1.70;99.90;;;;;;4957018;29;20024;-76
2022/04/12 01:51:29;;;;;;;9.45;4.32;;;1.70;99.90;;;;;;4939546;29;20039;-76
2022/04/12 01:53:55;;;;;;;5.93;3.42;;;1.70;99.90;;;;;;4956845;29;20038;-76
2022/04/12 01:56:20;;;;;;;3.75;2.90;;;1.70;99.90;;;;;;4956696;29;20509;-76
2022/04/12 01:58:46;;;;;;;3.42;2.60;;;1.70;99.90;;;;;;4956808;29;20016;-76
2022/04/12 02:01:12;;;;;;;5.97;3.20;;;1.60;99.90;;;;;;4939861;29;20122;-76
2022/04/12 02:03:37;;;;;;;4.25;2.88;;;1.60;99.90;;;;;;4962826;29;20011;-77
2022/04/12 02:06:03;;;;;;;3.90;2.90;;;1.50;99.90;;;;;;4964519;28;20019;-77
2022/04/12 02:08:29;;;;;;;5.03;2.88;;;1.50;99.90;;;;;;4959035;29;20024;-76
2022/04/12 02:10:55;;;;;;;3.88;2.95;;;1.40;99.90;;;;;;4959096;29;20039;-76
2022/04/12 02:13:20;;;;;;;3.65;2.75;;;1.40;99.90;;;;;;4958190;29;20062;-76
2022/04/12 02:15:46;;;;;;;4.63;2.67;;;1.40;99.90;;;;;;4957540;29;20436;-76
2022/04/12 02:18:11;;;;;;;5.63;3.50;;;1.40;99.90;;;;;;4957166;29;20043;-77
2022/04/12 02:20:37;;;;;;;6.18;3.17;;;1.40;99.90;;;;;;4956983;29;20710;-76
2022/04/12 02:23:03;;;;;;;4.95;3.33;;;1.40;99.90;;;;;;4956905;29;20102;-76
2022/04/12 02:25:28;;;;;;;3.90;3.42;;;1.30;99.90;;;;;;4957044;29;20379;-76
2022/04/12 02:27:54;;;;;;;8.48;3.53;;;1.30;99.90;;;;;;4957056;29;20609;-77
2022/04/12 02:30:20;;;;;;;6.93;3.35;;;1.20;99.90;;;;;;4956879;29;20039;-76
2022/04/12 02:32:45;;;;;;;6.07;3.17;;;1.20;99.90;;;;;;4956899;29;20027;-76
2022/04/12 02:35:12;;;;;;;3.72;3.40;;;1.10;99.90;;;;;;4956239;29;20026;-76
2022/04/12 02:37:38;;;;;;;5.18;3.17;;;1.10;99.90;;;;;;4956712;29;20051;-76
2022/04/12 02:40:05;;;;;;;3.97;2.83;;;1.10;99.90;;;;;;4956374;29;20110;-77
2022/04/12 02:42:30;;;;;;;5.20;3.30;;;1.10;99.90;;;;;;4956359;29;20471;-77
2022/04/12 02:44:56;;;;;;;4.13;3.45;;;1.10;99.90;;;;;;4956431;29;20035;-76
2022/04/12 02:47:26;;;;;;;6.60;3.92;;;1.00;99.90;;;;;;4955944;29;20015;-76
2022/04/12 02:49:54;;;;;;;5.63;3.42;;;1.00;99.90;;;;;;4956295;29;20027;-76
2022/04/12 02:52:20;;;;;;;3.85;3.10;;;1.00;99.90;;;;;;4956082;29;20032;-76
2022/04/12 02:54:46;;;;;;;5.38;3.95;;;0.90;99.90;;;;;;4956202;29;20097;-76
2022/04/12 02:57:12;;;;;;;10.85;6.05;;;0.90;99.90;;;;;;4939015;29;20471;-76
2022/04/12 02:59:37;;;;;;;7.88;4.88;;;0.90;99.90;;;;;;4955955;29;20471;-76
2022/04/12 03:02:03;;;;;;;7.88;4.78;;;0.80;99.90;;;;;;4939137;29;20031;-76
2022/04/12 03:04:29;;;;;;;10.65;4.85;;;0.60;99.90;;;;;;4956405;29;20495;-77
2022/04/12 03:06:54;;;;;;;10.50;6.43;;;0.60;99.90;;;;;;4955862;29;20072;-76
2022/04/12 03:09:20;;;;;;;8.40;6.22;;;0.60;99.90;;;;;;4938683;29;20106;-76
2022/04/12 03:11:46;;;;;;;8.05;4.65;;;0.60;99.90;;;;;;4938808;29;20036;-76
2022/04/12 03:14:11;;;;;;;5.43;3.97;;;0.60;99.90;;;;;;4955778;29;20031;-76
2022/04/12 03:16:37;;;;;;;6.50;4.30;;;0.60;99.90;;;;;;4955382;29;20059;-76
2022/04/12 03:19:03;;;;;;;5.35;4.20;;;0.60;99.90;;;;;;4954849;28;20049;-76
2022/04/12 03:21:28;;;;;;;10.30;4.95;;;0.50;99.90;;;;;;4955749;29;20371;-75
2022/04/12 03:23:54;;;;;;;5.35;3.60;;;0.50;99.90;;;;;;4955890;29;20032;-76
2022/04/12 03:26:20;;;;;;;6.22;3.92;;;0.40;99.90;;;;;;4955677;29;20027;-75
2022/04/12 03:28:47;;;;;;;5.30;3.75;;;0.40;99.90;;;;;;4937724;29;20031;-76
2022/04/12 03:31:12;;;;;;;11.52;7.75;;;0.40;99.90;;;;;;4954458;29;20035;-76
2022/04/12 03:33:38;;;;;;;6.93;4.03;;;0.50;99.90;;;;;;4937873;29;20023;-76
2022/04/12 03:36:04;;;;;;;6.95;4.95;;;0.50;99.90;;;;;;4954907;29;20027;-76
2022/04/12 03:38:30;;;;;;;7.35;5.30;;;0.50;99.90;;;;;;4937570;29;20106;-76
2022/04/12 03:40:58;;;;;;;8.45;4.28;;;0.50;99.90;;;;;;4954595;29;20031;-76
2022/04/12 03:43:24;;;;;;;6.72;3.95;;;0.50;99.90;;;;;;4954767;29;20090;-76
2022/04/12 03:45:50;;;;;;;5.05;4.30;;;0.50;99.90;;;;;;4954645;29;20487;-76
2022/04/12 03:48:15;;;;;;;8.57;5.97;;;0.50;99.90;;;;;;4954707;29;20031;-76
2022/04/12 03:50:41;;;;;;;5.90;4.75;;;0.60;99.90;;;;;;4954752;29;20041;-76
2022/04/12 03:53:06;;;;;;;10.60;5.35;;;0.60;99.90;;;;;;4954823;29;20032;-76
2022/04/12 03:55:34;;;;;;;6.05;4.50;;;0.60;99.90;;;;;;4954628;29;20658;-76
2022/04/12 03:58:02;;;;;;;5.63;3.75;;;0.70;99.90;;;;;;4954524;29;20046;-76
2022/04/12 04:00:28;;;;;;;5.55;4.15;;;0.70;99.90;;;;;;4954536;29;20019;-76
2022/04/12 04:02:54;;;;;;;6.03;3.92;;;0.60;99.90;;;;;;4954416;29;20102;-75
2022/04/12 04:05:21;;;;;;;5.05;4.07;;;0.60;99.90;;;;;;4954369;29;20024;-76
2022/04/12 04:07:46;;;;;;;6.05;4.72;;;0.60;99.90;;;;;;4954368;29;20027;-76
2022/04/12 04:10:12;;;;;;;6.00;4.15;;;0.60;99.90;;;;;;4954094;29;20030;-76
2022/04/12 04:12:38;;;;;;;8.15;5.22;;;0.60;99.90;;;;;;4954346;29;20038;-76
2022/04/12 04:15:05;;;;;;;6.78;5.15;;;0.60;99.90;;;;;;4954240;29;20065;-76
2022/04/12 04:17:31;;;;;;;9.40;5.68;;;0.60;99.90;;;;;;4955046;29;20061;-75
2022/04/12 04:19:57;;;;;;;4.50;3.40;;;0.60;99.90;;;;;;4937179;29;20023;-75
2022/04/12 04:22:23;;;;;;;6.57;4.65;;;1.20;99.90;;;;;;4954330;29;20023;-78
2022/04/12 04:24:49;;;;;;;5.45;4.15;;;1.20;99.90;;;;;;4958316;29;20035;-75
2022/04/12 04:27:16;;;;;;;5.03;4.32;;;1.20;99.90;;;;;;4954211;29;20407;-76
2022/04/12 04:29:42;;;;;;;6.55;5.32;;;1.10;99.90;;;;;;4954620;28;20027;-76
2022/04/12 04:32:09;;;;;;;8.52;4.25;;;1.10;99.90;;;;;;4958303;29;20549;-76
2022/04/12 04:34:35;;;;;;;5.20;3.67;;;1.00;99.90;;;;;;4941002;29;20482;-76
2022/04/12 04:37:01;;;;;;;10.15;4.68;;;1.00;99.90;;;;;;4958309;28;20050;-77
2022/04/12 04:39:26;;;;;;;7.70;4.28;;;1.00;99.90;;;;;;4958199;29;20474;-76
2022/04/12 04:41:52;;;;;;;15.20;6.45;;;1.00;99.90;;;;;;4958307;29;20023;-76
2022/04/12 04:44:18;;;;;;;10.68;5.40;;;0.80;99.90;;;;;;4958130;29;20055;-76
2022/04/12 04:46:44;;;;;;;12.52;5.75;;;0.80;99.90;;;;;;4958198;28;20027;-76
2022/04/12 04:49:09;;;;;;;8.10;5.28;;;0.80;99.90;;;;;;4958144;29;20023;-76
2022/04/12 04:51:37;;;;;;;10.15;5.35;;;0.90;99.90;;;;;;4958033;29;20054;-77
2022/04/12 04:54:02;;;;;;;7.05;5.32;;;0.90;99.90;;;;;;4957883;29;20025;-77
2022/04/12 04:56:28;;;;;;;8.38;5.50;;;0.90;99.90;;;;;;4940655;29;20479;-77
2022/04/12 04:58:54;;;;;;;8.32;5.30;;;1.00;99.90;;;;;;4957953;29;20023;-76
2022/04/12 05:01:20;;;;;;;7.68;5.28;;;1.00;99.90;;;;;;4957658;29;20030;-76
2022/04/12 05:03:50;;;;;;;6.90;4.70;;;1.10;99.90;;;;;;4957664;29;20015;-77
2022/04/12 05:06:16;;;;;;;9.60;4.90;;;1.10;99.90;;;;;;4957503;28;20423;-77
2022/04/12 05:08:41;;;;;;;12.90;6.45;;;1.20;99.90;;;;;;4957159;29;20082;-76
2022/04/12 05:11:07;;;;;;;10.75;5.78;;;1.30;99.90;;;;;;4939952;29;20039;-76
2022/04/12 05:13:32;;;;;;;12.02;4.88;;;1.30;99.90;;;;;;4957514;29;20088;-76
2022/04/12 05:15:58;;;;;;;8.48;5.38;;;1.30;99.90;;;;;;4939736;29;20089;-76
2022/04/12 05:18:24;;;;;;;7.63;5.03;;;1.40;99.90;;;;;;4956972;29;20058;-76
2022/04/12 05:20:49;;;;;;;9.32;5.25;;;1.50;99.90;;;;;;4957128;29;20031;-77
2022/04/12 05:23:16;;;;;;;7.82;4.80;;;1.60;99.90;;;;;;4956885;29;20416;-77
2022/04/12 05:25:42;;;;;;;9.05;5.65;;;1.60;99.90;;;;;;4957256;28;20019;-77
2022/04/12 05:28:08;;;;;;;8.15;4.85;;;1.70;99.90;;;;;;4963921;29;20039;-77
2022/04/12 05:30:33;;;;;;;6.45;4.13;;;1.70;99.90;;;;;;4965862;29;20035;-77
2022/04/12 05:32:59;;;;;;;8.80;4.82;;;1.80;99.90;;;;;;4961803;29;20106;-77
2022/04/12 05:35:25;;;;;;;10.35;4.50;;;1.90;99.90;;;;;;4960735;28;20023;-77
2022/04/12 05:37:53;;;;;;;10.90;4.95;;;1.90;99.90;;;;;;4959911;29;20023;-77
2022/04/12 05:40:20;;;;;;;7.93;4.78;;;1.90;99.90;;;;;;4959712;29;20463;-77
2022/04/12 05:42:47;;;;;;;11.13;4.82;;;1.90;99.90;;;;;;4959207;28;20455;-77
2022/04/12 05:45:13;;;;;;;7.57;4.90;;;2.00;99.90;;;;;;4958811;28;20106;-77
2022/04/12 05:47:44;;;;;;;7.43;5.07;;;2.10;99.90;;;;;;4959073;29;20092;-77
2022/04/12 05:50:11;;;;;;;5.82;5.07;;;2.20;99.90;;;;;;4958824;29;20035;-77
2022/04/12 05:52:38;;;;;;;8.48;5.03;;;2.30;99.90;;;;;;4959283;29;20031;-77
2022/04/12 05:55:15;;;;;;;7.28;5.00;;;2.60;99.90;;;;;;4959721;29;20147;-78
2022/04/12 05:57:57;;;;;;;7.65;5.03;;;2.70;99.90;;;;;;4959444;29;20055;-79
2022/04/12 06:00:25;;;;;;;10.55;5.70;;;2.70;99.90;;;;;;4959815;29;20098;-80
2022/04/12 06:02:52;;;;;;;11.43;5.32;;;2.70;99.90;;;;;;4961199;29;20038;-80
2022/04/12 06:05:19;;;;;;;6.97;4.93;;;2.80;99.90;;;;;;4942990;28;20023;-79
2022/04/12 06:07:45;;;;;;;13.45;6.38;;;2.90;99.90;;;;;;4942652;29;20415;-80
2022/04/12 06:10:12;;;;;;;9.57;5.15;;;2.90;99.90;;;;;;4943227;29;20028;-80
2022/04/12 06:12:38;;;;;;;11.45;5.97;;;3.00;99.90;;;;;;4942356;29;20038;-78
2022/04/12 06:15:05;;;;;;;10.68;5.32;;;3.10;99.90;;;;;;4944609;29;20027;-80
2022/04/12 06:17:35;;;;;;;7.07;5.03;;;3.30;99.90;;;;;;4942752;29;20065;-80
2022/04/12 06:20:10;;;;;;;6.93;4.78;;;3.40;99.90;;;;;;4961772;29;20083;-79
2022/04/12 06:22:36;;;;;;;7.38;5.20;;;3.50;99.90;;;;;;4946270;29;20562;-79
2022/04/12 06:30:26;;;;;;;6.28;4.80;;;4.10;99.90;;;;;;5027918;23;20046;-79
2022/04/12 06:32:56;;;;;;;10.48;5.90;;;4.50;99.90;;;;;;4958230;29;20044;-82
2022/04/12 06:35:22;;;;;;;7.32;5.55;;;4.80;99.90;;;;;;4950558;28;20027;-78
2022/04/12 06:37:56;;;;;;;7.78;4.80;;;4.70;99.90;;;;;;4946524;29;20118;-80
2022/04/12 06:40:24;;;;;;;18.55;8.32;;;4.60;99.90;;;;;;4972735;29;20029;-79
2022/04/12 06:42:56;;;;;;;22.20;11.05;;;5.00;99.90;;;;;;4965881;29;20031;-80
2022/04/12 06:45:22;;;;;;;8.68;6.05;;;5.10;99.90;;;;;;4971777;28;20026;-81
2022/04/12 06:47:54;;;;;;;11.00;4.80;;;5.20;99.90;;;;;;4972145;29;20034;-81
2022/04/12 06:50:19;;;;;;;8.15;6.03;;;5.30;99.90;;;;;;4950702;29;20034;-78
2022/04/12 06:52:50;;;;;;;9.85;5.65;;;5.50;99.90;;;;;;4958706;28;20039;-79
2022/04/12 06:55:17;;;;;;;10.82;6.75;;;5.80;99.90;;;;;;4944558;28;20032;-79
2022/04/12 06:57:43;;;;;;;8.50;4.80;;;6.00;99.90;;;;;;5321992;23;20027;-80
2022/04/12 07:18:18;;;;;;;7.50;3.97;;;7.10;95.60;;;;;;6007044;23;20014;-80
2022/04/12 07:25:50;;;;;;;5.55;2.92;;;7.60;93.60;;;;;;5937468;23;20202;-81
2022/04/12 07:30:51;;;;;;;8.18;3.42;;;7.80;91.20;;;;;;5081578;23;20407;-81
2022/04/12 07:33:17;;;;;;;6.97;2.90;;;7.90;90.30;;;;;;5020285;23;20119;-80
2022/04/12 07:35:43;;;;;;;4.88;2.63;;;8.10;90.00;;;;;;4962736;28;20027;-80
2022/04/12 07:38:09;;;;;;;5.00;3.00;;;8.20;89.20;;;;;;4943292;29;20027;-80
2022/04/12 07:40:35;;;;;;;5.68;3.42;;;8.30;88.60;;;;;;4942006;29;20027;-79
2022/04/12 07:43:00;;;;;;;3.95;2.83;;;8.40;88.80;;;;;;4942825;29;20034;-80
2022/04/12 07:45:26;;;;;;;5.25;3.45;;;8.60;90.10;;;;;;4958626;28;20096;-80
2022/04/12 07:47:51;;;;;;;4.53;3.17;;;8.80;88.80;;;;;;4955492;29;20030;-79
2022/04/12 07:50:17;;;;;;;6.03;3.20;;;8.90;87.10;;;;;;4937566;29;20023;-81
2022/04/12 07:52:43;;;;;;;5.20;3.55;;;9.10;89.70;;;;;;4955273;29;20550;-80
2022/04/12 07:55:08;;;;;;;3.92;2.85;;;9.40;90.00;;;;;;4938174;29;20019;-79
2022/04/12 07:57:36;;;;;;;4.93;3.03;;;9.70;97.20;;;;;;4955484;28;20050;-80
2022/04/12 08:00:02;;;;;;;6.72;4.50;;;9.60;86.60;;;;;;4938078;29;20086;-80
2022/04/12 08:02:28;;;;;;;4.43;3.20;;;9.70;86.00;;;;;;4954988;29;20482;-80
2022/04/12 08:04:55;;;;;;;3.70;3.08;;;9.90;86.20;;;;;;4936919;29;20062;-80
2022/04/12 08:07:20;;;;;;;6.97;3.53;;;9.90;86.10;;;;;;4954755;28;20019;-80
2022/04/12 08:09:46;;;;;;;8.23;3.10;;;9.90;83.00;;;;;;4954839;29;20027;-80
2022/04/12 08:12:13;;;;;;;5.10;3.17;;;9.80;83.30;;;;;;4954671;29;20063;-81
2022/04/12 08:14:39;;;;;;;4.68;2.55;;;9.90;84.60;;;;;;4954490;29;20063;-80
2022/04/12 08:17:06;;;;;;;5.10;2.53;;;10.10;89.20;;;;;;4937816;29;20055;-80
2022/04/12 08:19:32;;;;;;;4.07;2.80;;;10.20;92.70;;;;;;4937501;29;20027;-80
2022/04/12 08:22:00;;;;;;;7.35;3.10;;;10.40;92.80;;;;;;4937624;29;20033;-80
2022/04/12 08:24:25;;;;;;;3.55;2.72;;;10.50;98.60;;;;;;4954470;29;20074;-80
2022/04/12 08:26:51;;;;;;;4.35;2.90;;;10.50;88.70;;;;;;4937184;29;20426;-81
2022/04/12 08:29:17;;;;;;;4.00;2.95;;;10.70;83.60;;;;;;4937478;29;20038;-81
2022/04/12 08:31:42;;;;;;;3.97;3.08;;;10.90;83.20;;;;;;4936887;29;20027;-82
2022/04/12 08:34:08;;;;;;;5.25;2.70;;;11.00;82.60;;;;;;4937231;29;20446;-82
2022/04/12 08:36:34;;;;;;;3.25;2.42;;;11.10;80.80;;;;;;4937185;29;20383;-83
2022/04/12 08:38:59;;;;;;;3.38;2.50;;;11.20;74.80;;;;;;4937364;29;20479;-82
2022/04/12 08:41:26;;;;;;;3.70;2.60;;;11.20;74.30;;;;;;4954383;29;20031;-81
2022/04/12 08:43:57;;;;;;;4.88;2.50;;;11.20;73.80;;;;;;4954495;29;20035;-82
2022/04/12 08:46:25;;;;;;;4.65;3.05;;;11.20;72.60;;;;;;4937269;29;20063;-81
2022/04/12 08:48:56;;;;;;;4.53;2.80;;;11.20;72.40;;;;;;4937793;29;20046;-82
2022/04/12 08:51:22;;;;;;;4.07;2.58;;;11.20;72.30;;;;;;4939136;29;20031;-82
2022/04/12 08:53:49;;;;;;;4.90;2.78;;;11.30;72.90;;;;;;4954619;29;20027;-80
2022/04/12 08:56:15;;;;;;;4.45;2.80;;;11.50;86.60;;;;;;4954504;28;20090;-81
2022/04/12 08:58:40;;;;;;;3.22;2.20;;;11.70;85.30;;;;;;4954263;29;20035;-81
2022/04/12 09:01:06;;;;;;;3.60;2.40;;;11.80;86.70;;;;;;4936608;29;20348;-80
2022/04/12 09:03:31;;;;;;;4.00;2.17;;;11.90;85.10;;;;;;4936946;29;20027;-82
2022/04/12 09:05:57;;;;;;;4.13;2.35;;;12.10;77.50;;;;;;4936767;29;20467;-81
2022/04/12 09:08:23;;;;;;;3.55;2.30;;;12.00;73.20;;;;;;4954551;29;20102;-82
2022/04/12 09:11:05;;;;;;;6.43;2.47;;;11.90;73.50;;;;;;4937202;29;20363;-82
2022/04/12 09:13:31;;;;;;;3.15;2.60;;;11.90;75.40;;;;;;4937416;29;20107;-83
2022/04/12 09:15:58;;;;;;;4.30;2.45;;;12.00;76.00;;;;;;4954873;28;20062;-84
2022/04/12 09:18:41;;;;;;;3.25;2.75;;;12.20;77.10;;;;;;4941195;29;20026;-84
2022/04/12 09:21:14;;;;;;;9.20;2.13;;;12.30;75.10;;;;;;4940231;29;20039;-78
2022/04/12 09:23:42;;;;;;;3.45;2.15;;;12.60;77.00;;;;;;4957545;29;20176;-76
2022/04/12 09:26:08;;;;;;;3.55;2.42;;;12.80;91.40;;;;;;4957265;28;20541;-78
2022/04/12 09:28:41;;;;;;;6.32;3.13;;;12.70;90.50;;;;;;4957511;29;20106;-77
2022/04/12 09:31:15;;;;;;;4.05;2.80;;;12.70;85.10;;;;;;4939087;29;20039;-78
2022/04/12 09:33:42;;;;;;;5.82;4.07;;;12.60;72.50;;;;;;4956701;29;20122;-77
2022/04/12 09:36:09;;;;;;;4.25;2.17;;;12.60;73.60;;;;;;4939636;29;20027;-81
2022/04/12 09:38:37;;;;;;;4.25;2.72;;;12.60;71.10;;;;;;4957098;29;20027;-76
2022/04/12 09:41:12;;;;;;;4.68;2.90;;;12.70;71.00;;;;;;4957080;29;20031;-76
2022/04/12 09:43:59;;;;;;;2.88;2.53;;;12.80;74.50;;;;;;4956345;29;20055;-79
2022/04/12 09:46:27;;;;;;;6.95;2.67;;;13.00;74.30;;;;;;4956553;28;20023;-76
2022/04/12 09:48:53;;;;;;;8.70;2.83;;;13.20;73.00;;;;;;4956556;29;20026;-76
2022/04/12 09:51:22;;;;;;;5.50;2.50;;;13.30;71.90;;;;;;4956388;29;20028;-76
2022/04/12 09:53:47;;;;;;;5.28;2.67;;;13.20;69.50;;;;;;4956560;29;20023;-77
2022/04/12 09:56:15;;;;;;;5.53;2.55;;;13.10;71.10;;;;;;4956189;28;20032;-76
2022/04/12 09:58:41;;;;;;;6.57;3.05;;;13.20;71.90;;;;;;4956320;29;20426;-76
2022/04/12 10:01:10;;;;;;;5.57;3.33;;;13.30;71.80;;;;;;4939037;29;20035;-76
2022/04/12 10:03:37;;;;;;;4.55;3.42;;;13.40;72.40;;;;;;4956144;29;20078;-78
2022/04/12 10:06:03;;;;;;;3.80;2.78;;;13.40;69.40;;;;;;4938712;29;20391;-78
2022/04/12 10:08:33;;;;;;;6.75;3.10;;;13.50;70.60;;;;;;4938649;29;20111;-78
2022/04/12 10:10:59;;;;;;;4.50;3.20;;;13.50;69.50;;;;;;4938816;29;20450;-81
2022/04/12 10:13:26;;;;;;;5.07;3.50;;;13.50;70.70;;;;;;4938715;29;20030;-81
2022/04/12 10:15:53;;;;;;;4.78;3.22;;;13.50;70.10;;;;;;4955675;28;20031;-81
2022/04/12 10:18:20;;;;;;;4.03;3.20;;;13.50;72.10;;;;;;4938974;29;20022;-81
2022/04/12 10:20:46;;;;;;;4.15;3.38;;;13.60;69.40;;;;;;4938737;29;20035;-80
2022/04/12 10:23:15;;;;;;;4.07;2.53;;;13.60;68.40;;;;;;4955901;29;20113;-81
2022/04/12 10:25:40;;;;;;;5.22;3.53;;;13.70;69.50;;;;;;4955764;28;20406;-81
2022/04/12 10:28:07;;;;;;;5.93;2.97;;;13.80;69.40;;;;;;4937966;29;20028;-83
2022/04/12 10:30:32;;;;;;;8.00;3.50;;;13.80;67.90;;;;;;4955732;29;20027;-80
2022/04/12 10:33:08;;;;;;;7.65;3.80;;;13.90;69.70;;;;;;4955576;29;20053;-81
2022/04/12 10:35:43;;;;;;;;;;;14.00;70.10;;;;;;4938990;28;20475;-79
2022/04/12 10:38:12;;;;;;;4.80;4.05;;;14.20;68.70;;;;;;4938673;29;19910;-82
2022/04/12 10:40:43;;;;;;;4.25;3.20;;;14.30;68.40;;;;;;4938447;29;20598;-82
2022/04/12 10:43:11;;;;;;;3.75;2.67;;;14.30;68.50;;;;;;4955789;29;20034;-79
2022/04/12 10:45:48;;;;;;;5.53;3.17;;;14.40;69.20;;;;;;4955379;28;20023;-79
2022/04/12 10:48:22;;;;;;;6.22;3.85;;;14.50;68.50;;;;;;4955461;29;20030;-79
2022/04/12 10:50:53;;;;;;;6.53;3.30;;;14.50;77.30;;;;;;4955325;29;20035;-79
2022/04/12 10:53:40;;;;;;;4.63;2.55;;;14.60;69.10;;;;;;4954928;29;20031;-78
2022/04/12 10:56:10;;;;;;;5.00;3.40;;;14.80;68.50;;;;;;4954066;28;20038;-78
2022/04/12 10:58:37;;;;;;;4.50;3.03;;;14.80;66.40;;;;;;4955158;29;20027;-79
2022/04/12 11:01:04;;;;;;;4.15;2.88;;;14.80;64.40;;;;;;4937978;29;20028;-78
2022/04/12 11:03:43;;;;;;;3.78;3.22;;;14.90;67.80;;;;;;4955540;29;20166;-78
2022/04/12 11:06:25;;;;;;;5.00;3.30;;;15.10;65.80;;;;;;4955317;29;20047;-78
2022/04/12 11:09:07;;;;;;;5.10;2.90;;;15.20;65.80;;;;;;4955312;29;20023;-78
2022/04/12 11:11:52;;;;;;;5.53;2.90;;;15.30;65.50;;;;;;4955112;29;20038;-78
2022/04/12 11:14:38;;;;;;;5.03;4.03;;;15.40;63.60;;;;;;4955209;29;20029;-78
2022/04/12 11:17:19;;;;;;;5.50;2.95;;;15.40;63.80;;;;;;4938010;29;20027;-78
2022/04/12 11:19:54;;;;;;;4.90;3.25;;;15.40;63.50;;;;;;4937910;29;20019;-78
2022/04/12 11:22:21;;;;;;;5.22;2.90;;;15.40;63.80;;;;;;4955022;29;20023;-78
2022/04/12 11:25:15;;;;;;;6.03;2.95;;;15.40;64.20;;;;;;4937682;29;20039;-78
2022/04/12 11:27:41;;;;;;;4.85;3.40;;;15.50;62.50;;;;;;4955145;29;20034;-78
2022/04/12 11:30:12;;;;;;;5.07;2.90;;;15.50;64.60;;;;;;4954929;29;20039;-78
2022/04/12 11:32:38;;;;;;;7.80;2.47;;;15.50;62.60;;;;;;4937261;29;20126;-78
2022/04/12 11:35:04;;;;;;;4.00;2.80;;;15.60;62.40;;;;;;4954800;29;20485;-78
2022/04/12 11:37:31;;;;;;;4.38;3.05;;;15.60;62.60;;;;;;4954830;29;20039;-78
2022/04/12 11:39:56;;;;;;;4.85;3.00;;;15.70;63.50;;;;;;4954610;28;20641;-78
2022/04/12 11:42:22;;;;;;;3.60;2.50;;;15.80;63.20;;;;;;4954622;29;20031;-78
2022/04/12 11:44:52;;;;;;;3.75;2.92;;;15.80;62.70;;;;;;4954744;29;20027;-79
2022/04/12 11:47:19;;;;;;;4.10;3.10;;;15.90;63.70;;;;;;4954510;29;20031;-78
2022/04/12 11:49:44;;;;;;;4.72;3.03;;;16.00;63.40;;;;;;4954549;29;20458;-78
2022/04/12 11:52:13;;;;;;;4.55;3.22;;;16.00;63.60;;;;;;4954482;29;20046;-78
2022/04/12 11:54:41;;;;;;;5.75;3.50;;;16.00;63.00;;;;;;4954368;29;20485;-78
2022/04/12 11:57:07;;;;;;;4.32;2.47;;;16.00;61.90;;;;;;4937320;29;20169;-78
2022/04/12 11:59:35;;;;;;;7.18;2.92;;;16.00;61.00;;;;;;4954403;29;20114;-78
2022/04/12 12:02:02;;;;;;;7.97;3.42;;;16.10;62.70;;;;;;4954508;29;20047;-78
2022/04/12 12:04:30;;;;;;;5.07;2.78;;;16.10;62.50;;;;;;4937004;29;20030;-79
2022/04/12 12:07:05;;;;;;;6.03;3.05;;;16.00;71.60;;;;;;4954403;29;20038;-78
2022/04/12 12:09:32;;;;;;;4.95;3.45;;;16.20;70.70;;;;;;4937134;29;20422;-78
2022/04/12 12:12:00;;;;;;;5.97;3.88;;;16.30;64.00;;;;;;4936924;29;20051;-78
2022/04/12 12:14:27;;;;;;;7.10;3.60;;;16.30;63.50;;;;;;4954164;29;20496;-78
2022/04/12 12:17:24;;;;;;;6.15;3.58;;;16.40;61.70;;;;;;4954210;29;20102;-78
2022/04/12 12:19:50;;;;;;;5.80;3.33;;;16.50;62.60;;;;;;4938799;29;20047;-78
2022/04/12 12:22:15;;;;;;;3.90;3.13;;;16.60;63.40;;;;;;4937124;29;20023;-78
2022/04/12 12:24:56;;;;;;;5.45;3.47;;;16.60;61.80;;;;;;4936988;29;20114;-78
2022/04/12 12:27:28;;;;;;;4.82;2.95;;;16.60;61.40;;;;;;4954236;29;20090;-77
2022/04/12 12:30:07;;;;;;;5.45;3.17;;;16.60;62.70;;;;;;4937039;29;20391;-76
2022/04/12 12:32:37;;;;;;;3.95;2.78;;;16.70;61.00;;;;;;4953112;29;20047;-77
2022/04/12 12:35:09;;;;;;;3.50;2.78;;;16.70;60.60;;;;;;4936620;29;20024;-77
2022/04/12 12:37:36;;;;;;;5.25;3.83;;;16.90;61.30;;;;;;4953942;29;20383;-77
2022/04/12 12:40:04;;;;;;;4.47;2.67;;;16.90;60.80;;;;;;4953840;29;20039;-77
2022/04/12 12:42:39;;;;;;;7.50;3.25;;;17.00;59.90;;;;;;4954038;29;20027;-77
2022/04/12 12:45:13;;;;;;;5.15;2.47;;;17.00;59.50;;;;;;4954038;29;20035;-78
2022/04/12 12:47:44;;;;;;;3.13;1.92;;;16.90;58.50;;;;;;4953826;29;20032;-79
2022/04/12 12:50:18;;;;;;;3.95;2.92;;;17.00;58.50;;;;;;4953922;28;20130;-78
2022/04/12 12:52:44;;;;;;;3.58;2.25;;;17.10;58.40;;;;;;4939769;29;20392;-78
2022/04/12 12:55:16;;;;;;;3.50;2.58;;;17.10;59.00;;;;;;4940624;29;20027;-78
2022/04/12 12:57:50;;;;;;;5.28;2.75;;;17.20;58.40;;;;;;4940810;29;20493;-78
2022/04/12 13:00:19;;;;;;;3.42;2.75;;;17.30;58.50;;;;;;4957627;29;20158;-78
2022/04/12 13:02:45;;;;;;;6.80;2.78;;;17.20;61.20;;;;;;4940370;29;20031;-79
2022/04/12 13:05:13;;;;;;;4.78;3.05;;;17.20;57.40;;;;;;4940332;29;20031;-78
2022/04/12 13:07:40;;;;;;;5.20;3.38;;;17.30;57.10;;;;;;4957571;29;20475;-80
2022/04/12 13:10:17;;;;;;;5.55;3.13;;;17.30;58.10;;;;;;4940302;29;20042;-81
2022/04/12 13:12:44;;;;;;;3.30;2.53;;;17.30;58.10;;;;;;4957528;29;20114;-79
2022/04/12 13:15:12;;;;;;;5.70;2.30;;;17.40;57.10;;;;;;4956775;29;20051;-79
2022/04/12 13:17:39;;;;;;;2.60;2.22;;;17.30;57.30;;;;;;4956808;29;20031;-78
2022/04/12 13:20:07;;;;;;;3.13;2.20;;;17.30;57.60;;;;;;4957289;29;20463;-78
2022/04/12 13:22:33;;;;;;;7.30;2.78;;;17.30;56.90;;;;;;4940286;29;20031;-78
2022/04/12 13:25:00;;;;;;;3.92;2.70;;;17.40;57.20;;;;;;4957172;29;20024;-78
2022/04/12 13:27:26;;;;;;;4.90;3.50;;;17.40;57.90;;;;;;4957213;29;20047;-78
2022/04/12 13:29:52;;;;;;;4.53;3.03;;;17.20;57.30;;;;;;4956907;29;20089;-79